createdAt,value
2018-07-25T00:01:44.789Z,19.54
2018-07-25T00:04:14.292Z,19.53
2018-07-25T00:06:45.728Z,19.52
2018-07-25T00:09:15.328Z,19.54
2018-07-25T00:11:47.496Z,19.54
2018-07-25T00:14:21.288Z,19.49
2018-07-25T00:16:54.585Z,19.48
2018-07-25T00:19:24.425Z,19.45
2018-07-25T00:21:53.801Z,19.40
2018-07-25T00:24:25.271Z,19.27
2018-07-25T00:26:55.922Z,19.30
2018-07-25T00:29:24.996Z,19.30
2018-07-25T00:31:55.853Z,19.30
2018-07-25T00:34:30.151Z,19.28
2018-07-25T00:37:01.571Z,19.23
2018-07-25T00:39:33.227Z,19.16
2018-07-25T00:42:03.772Z,19.12
2018-07-25T00:44:33.087Z,19.16
2018-07-25T00:47:02.941Z,19.12
2018-07-25T00:49:34.595Z,19.09
2018-07-25T00:52:09.280Z,19.02
2018-07-25T00:54:40.676Z,18.96
2018-07-25T00:57:13.092Z,18.92
2018-07-25T00:59:46.037Z,18.89
2018-07-25T01:02:20.505Z,18.84
2018-07-25T01:04:55.822Z,18.86
2018-07-25T01:07:26.763Z,18.83
2018-07-25T01:09:57.512Z,18.93
2018-07-25T01:12:31.138Z,18.94
2018-07-25T01:15:02.258Z,18.98
2018-07-25T01:17:33.389Z,18.96
2018-07-25T01:20:07.210Z,18.96
2018-07-25T01:22:39.265Z,18.93
2018-07-25T01:25:11.343Z,18.84
2018-07-25T01:27:42.589Z,18.78
2018-07-25T01:30:13.059Z,18.73
2018-07-25T01:32:43.329Z,18.71
2018-07-25T01:35:13.465Z,18.72
2018-07-25T01:37:46.036Z,18.69
2018-07-25T01:40:20.145Z,18.64
2018-07-25T01:42:51.490Z,18.59
2018-07-25T01:45:21.232Z,18.61
2018-07-25T01:47:53.320Z,18.61
2018-07-25T01:50:23.196Z,18.49
2018-07-25T01:52:53.711Z,18.47
2018-07-25T01:55:24.884Z,18.38
2018-07-25T01:57:56.514Z,18.38
2018-07-25T02:00:28.581Z,18.33
2018-07-25T02:03:04.627Z,18.36
2018-07-25T02:05:36.010Z,18.34
2018-07-25T02:08:08.310Z,18.29
2018-07-25T02:10:44.415Z,18.36
2018-07-25T02:13:17.206Z,18.34
2018-07-25T02:15:57.275Z,18.36
2018-07-25T02:18:27.668Z,18.30
2018-07-25T02:20:57.485Z,18.27
2018-07-25T02:23:27.732Z,18.12
2018-07-25T02:25:58.674Z,18.11
2018-07-25T02:28:29.819Z,18.05
2018-07-25T02:31:00.734Z,18.03
2018-07-25T02:33:36.580Z,18.09
2018-07-25T02:36:08.060Z,18.06
2018-07-25T02:38:40.994Z,17.99
2018-07-25T02:41:12.897Z,17.98
2018-07-25T02:43:46.004Z,17.98
2018-07-25T02:46:17.933Z,17.98
2018-07-25T02:48:48.065Z,17.96
2018-07-25T02:51:18.936Z,17.97
2018-07-25T02:53:51.216Z,17.95
2018-07-25T02:56:22.921Z,17.87
2018-07-25T02:58:54.684Z,17.84
2018-07-25T03:01:29.848Z,17.81
2018-07-25T03:04:02.513Z,17.80
2018-07-25T03:06:38.063Z,17.78
2018-07-25T03:09:11.227Z,17.80
2018-07-25T03:11:40.899Z,17.74
2018-07-25T03:14:12.393Z,17.79
2018-07-25T03:16:49.138Z,17.75
2018-07-25T03:19:21.016Z,17.76
2018-07-25T03:21:52.588Z,17.76
2018-07-25T03:24:26.030Z,17.80
2018-07-25T03:27:04.505Z,17.80
2018-07-25T03:29:37.197Z,17.82
2018-07-25T03:32:07.977Z,17.83
2018-07-25T03:34:39.544Z,17.80
2018-07-25T03:37:10.619Z,17.74
2018-07-25T03:39:40.118Z,17.67
2018-07-25T03:42:16.868Z,17.60
2018-07-25T03:44:50.702Z,17.54
2018-07-25T03:47:20.384Z,17.60
2018-07-25T03:49:50.137Z,17.52
2018-07-25T03:52:26.417Z,17.54
2018-07-25T03:55:00.818Z,17.53
2018-07-25T03:57:34.615Z,17.56
2018-07-25T04:00:04.989Z,17.53
2018-07-25T04:02:36.747Z,17.53
2018-07-25T04:05:06.404Z,17.52
2018-07-25T04:07:36.808Z,17.50
2018-07-25T04:10:08.851Z,17.46
2018-07-25T04:12:38.909Z,17.42
2018-07-25T04:15:12.137Z,17.36
2018-07-25T04:17:44.992Z,17.41
2018-07-25T04:20:20.405Z,17.56
2018-07-25T04:22:54.164Z,17.63
2018-07-25T04:25:24.446Z,17.69
2018-07-25T04:27:55.972Z,17.73
2018-07-25T04:30:25.896Z,17.74
2018-07-25T04:32:57.209Z,17.78
2018-07-25T04:35:26.969Z,17.89
2018-07-25T04:37:56.363Z,17.94
2018-07-25T04:40:25.952Z,17.89
2018-07-25T04:42:55.608Z,17.96
2018-07-25T04:45:26.476Z,18.05
2018-07-25T04:47:56.577Z,18.14
2018-07-25T04:50:26.229Z,18.04
2018-07-25T04:52:56.339Z,18.12
2018-07-25T04:55:35.434Z,18.31
2018-07-25T04:58:06.163Z,18.40
2018-07-25T05:00:35.647Z,18.38
2018-07-25T05:03:06.251Z,18.42
2018-07-25T05:05:42.680Z,18.44
2018-07-25T05:10:48.425Z,18.64
2018-07-25T05:13:19.530Z,18.82
2018-07-25T05:15:50.482Z,18.98
2018-07-25T05:18:26.231Z,19.18
2018-07-25T05:21:01.664Z,19.36
2018-07-25T05:23:32.387Z,19.53
2018-07-25T05:26:03.136Z,19.69
2018-07-25T05:28:35.364Z,19.84
2018-07-25T05:33:49.085Z,20.12
2018-07-25T05:39:15.202Z,20.45
2018-07-25T05:41:56.388Z,20.59
2018-07-25T05:44:36.329Z,20.74
2018-07-25T05:47:15.152Z,20.74
2018-07-25T05:49:46.827Z,20.91
2018-07-25T05:52:25.552Z,21.08
2018-07-25T05:55:08.992Z,21.26
2018-07-25T05:57:46.557Z,21.42
2018-07-25T06:03:10.185Z,21.71
2018-07-25T06:05:43.133Z,21.84
2018-07-25T06:08:21.159Z,21.99
2018-07-25T06:10:55.685Z,22.08
2018-07-25T06:13:30.512Z,22.15
2018-07-25T06:16:05.035Z,22.35
2018-07-25T06:18:35.972Z,22.55
2018-07-25T06:21:07.028Z,22.55
2018-07-25T06:23:38.981Z,22.76
2018-07-25T06:26:09.759Z,22.92
2018-07-25T06:28:42.912Z,22.91
2018-07-25T06:31:13.657Z,23.22
2018-07-25T06:33:42.732Z,23.05
2018-07-25T06:36:12.191Z,23.26
2018-07-25T06:38:41.317Z,23.41
2018-07-25T06:41:10.721Z,23.52
2018-07-25T06:43:41.094Z,23.71
2018-07-25T06:46:10.031Z,24.05
2018-07-25T06:48:39.252Z,24.30
2018-07-25T06:51:10.055Z,24.67
2018-07-25T06:53:39.951Z,25.11
2018-07-25T06:56:09.196Z,25.60
2018-07-25T06:58:41.048Z,26.13
2018-07-25T07:01:10.264Z,26.51
2018-07-25T07:03:39.546Z,26.71
2018-07-25T07:06:09.683Z,26.92
2018-07-25T07:08:39.259Z,27.17
2018-07-25T07:11:08.552Z,27.34
2018-07-25T07:13:39.321Z,27.44
2018-07-25T07:16:08.842Z,27.70
2018-07-25T07:18:40.829Z,27.96
2018-07-25T07:21:12.291Z,28.17
2018-07-25T07:23:42.550Z,28.41
2018-07-25T07:26:13.079Z,28.46
2018-07-25T07:28:43.155Z,29.40
2018-07-25T07:31:13.656Z,30.59
2018-07-25T07:33:43.707Z,31.62
2018-07-25T07:36:14.812Z,33.66
2018-07-25T07:38:43.901Z,35.93
2018-07-25T07:41:16.561Z,37.62
2018-07-25T07:43:49.717Z,38.53
2018-07-25T07:46:19.424Z,38.18
2018-07-25T07:48:50.213Z,39.73
2018-07-25T07:51:22.164Z,40.87
2018-07-25T07:53:55.217Z,41.58
2018-07-25T07:56:26.067Z,40.13
2018-07-25T07:58:55.196Z,40.66
2018-07-25T08:01:26.004Z,41.62
2018-07-25T08:03:58.354Z,38.92
2018-07-25T08:06:28.612Z,40.46
2018-07-25T08:08:58.104Z,42.09
2018-07-25T08:11:29.219Z,43.01
2018-07-25T08:14:03.860Z,43.51
2018-07-25T08:16:35.074Z,41.31
2018-07-25T08:19:11.318Z,42.52
2018-07-25T08:21:42.864Z,41.94
2018-07-25T08:24:13.297Z,42.90
2018-07-25T08:26:43.913Z,43.04
2018-07-25T08:29:18.037Z,43.80
2018-07-25T08:31:50.555Z,44.08
2018-07-25T08:34:21.590Z,43.75
2018-07-25T08:36:51.736Z,43.69
2018-07-25T08:39:21.241Z,43.40
2018-07-25T08:41:51.584Z,44.17
2018-07-25T08:44:21.393Z,43.74
2018-07-25T08:46:53.265Z,43.21
2018-07-25T08:49:22.836Z,41.21
2018-07-25T08:51:52.561Z,40.48
2018-07-25T08:54:27.510Z,41.66
2018-07-25T08:56:59.743Z,43.93
2018-07-25T08:59:31.653Z,46.01
2018-07-25T09:02:05.414Z,43.96
2018-07-25T09:04:35.939Z,46.57
2018-07-25T09:07:09.573Z,47.61
2018-07-25T09:09:42.878Z,48.38
2018-07-25T09:12:14.233Z,47.32
2018-07-25T09:14:46.292Z,47.44
2018-07-25T09:17:16.592Z,47.13
2018-07-25T09:19:47.170Z,42.49
2018-07-25T09:22:21.573Z,39.41
2018-07-25T09:24:52.573Z,40.08
2018-07-25T09:27:23.421Z,38.72
2018-07-25T09:29:54.664Z,42.05
2018-07-25T09:32:26.127Z,45.04
2018-07-25T09:34:55.637Z,45.97
2018-07-25T09:37:26.763Z,46.84
2018-07-25T09:39:57.500Z,45.90
2018-07-25T09:42:29.498Z,43.09
2018-07-25T09:44:59.890Z,40.88
2018-07-25T09:47:29.866Z,44.02
2018-07-25T09:50:02.078Z,45.32
2018-07-25T09:59:21.736Z,45.12
2018-07-25T10:01:56.581Z,42.56
2018-07-25T10:04:30.233Z,40.32
2018-07-25T10:07:00.189Z,42.42
2018-07-25T10:09:30.065Z,44.15
2018-07-25T10:12:02.977Z,41.57
2018-07-25T10:14:33.365Z,42.69
2018-07-25T10:17:03.697Z,43.84
2018-07-25T10:19:34.365Z,41.75
2018-07-25T10:22:10.784Z,43.96
2018-07-25T10:24:43.305Z,45.62
2018-07-25T10:27:13.305Z,43.32
2018-07-25T10:29:44.157Z,43.18
2018-07-25T10:32:16.311Z,42.43
2018-07-25T10:34:48.718Z,44.38
2018-07-25T10:37:18.160Z,43.31
2018-07-25T10:39:51.705Z,43.64
2018-07-25T10:42:23.278Z,41.87
2018-07-25T10:44:53.341Z,43.74
2018-07-25T10:47:26.017Z,42.84
2018-07-25T10:49:59.414Z,41.22
2018-07-25T10:52:28.931Z,42.02
2018-07-25T10:55:00.758Z,39.59
2018-07-25T10:57:34.236Z,42.43
2018-07-25T11:00:07.064Z,43.21
2018-07-25T11:02:38.797Z,42.48
2018-07-25T11:05:09.211Z,42.25
2018-07-25T11:07:38.933Z,41.16
2018-07-25T11:10:09.996Z,41.58
2018-07-25T11:12:40.728Z,42.15
2018-07-25T11:15:14.738Z,42.09
2018-07-25T11:17:45.883Z,38.45
2018-07-25T11:20:18.032Z,37.34
2018-07-25T11:22:48.209Z,37.09
2018-07-25T11:25:21.679Z,36.29
2018-07-25T11:27:54.760Z,36.77
2018-07-25T11:30:24.985Z,37.52
2018-07-25T11:32:54.620Z,38.67
2018-07-25T11:35:24.581Z,39.23
2018-07-25T11:37:56.678Z,39.58
2018-07-25T11:40:31.814Z,38.60
2018-07-25T11:43:02.556Z,38.11
2018-07-25T11:45:33.232Z,37.29
2018-07-25T11:48:06.036Z,36.51
2018-07-25T11:50:39.621Z,36.63
2018-07-25T11:53:10.917Z,37.43
2018-07-25T11:55:43.194Z,37.99
2018-07-25T11:58:26.167Z,38.40
2018-07-25T12:00:59.332Z,38.66
2018-07-25T12:03:35.304Z,38.96
2018-07-25T12:06:12.196Z,40.30
2018-07-25T12:08:42.456Z,40.13
2018-07-25T12:11:15.896Z,39.94
2018-07-25T12:13:48.456Z,40.51
2018-07-25T12:16:19.962Z,40.53
2018-07-25T12:18:50.205Z,41.24
2018-07-25T12:21:20.481Z,42.78
2018-07-25T12:23:52.536Z,42.25
2018-07-25T12:26:23.741Z,41.80
2018-07-25T12:29:01.685Z,41.51
2018-07-25T12:31:32.644Z,39.56
2018-07-25T12:34:06.224Z,39.21
2018-07-25T12:36:44.620Z,39.52
2018-07-25T12:39:13.996Z,40.05
2018-07-25T12:41:44.461Z,40.85
2018-07-25T12:44:16.905Z,40.51
2018-07-25T12:46:49.625Z,40.19
2018-07-25T12:49:22.646Z,40.58
2018-07-25T12:51:55.041Z,41.13
2018-07-25T12:54:26.847Z,40.79
2018-07-25T12:56:56.893Z,41.73
2018-07-25T12:59:29.732Z,42.38
2018-07-25T13:02:03.633Z,41.68
2018-07-25T13:04:33.320Z,40.87
2018-07-25T13:07:03.070Z,41.12
2018-07-25T13:09:35.691Z,43.07
2018-07-25T13:12:16.689Z,42.39
2018-07-25T13:14:50.335Z,41.88
2018-07-25T13:17:21.942Z,41.73
2018-07-25T13:19:51.819Z,40.53
2018-07-25T13:22:23.518Z,39.67
2018-07-25T13:24:55.410Z,38.06
2018-07-25T13:30:01.150Z,39.10
2018-07-25T13:32:32.042Z,39.48
2018-07-25T13:35:04.283Z,40.43
2018-07-25T13:37:35.503Z,40.39
2018-07-25T13:40:06.521Z,39.41
2018-07-25T13:42:36.750Z,38.50
2018-07-25T13:45:10.237Z,37.38
2018-07-25T13:47:41.008Z,37.20
2018-07-25T13:50:11.408Z,37.45
2018-07-25T13:52:41.212Z,37.53
2018-07-25T13:55:11.597Z,37.27
2018-07-25T13:57:42.088Z,37.03
2018-07-25T14:00:12.809Z,36.68
2018-07-25T14:02:43.976Z,36.40
2018-07-25T14:05:16.083Z,36.52
2018-07-25T14:07:47.278Z,36.50
2018-07-25T14:10:18.144Z,36.43
2018-07-25T14:12:53.024Z,36.16
2018-07-25T14:15:24.359Z,35.89
2018-07-25T14:17:57.975Z,35.57
2018-07-25T14:20:29.520Z,35.29
2018-07-25T14:23:13.121Z,34.94
2018-07-25T14:25:42.933Z,34.51
2018-07-25T14:28:14.497Z,34.36
2018-07-25T14:30:49.284Z,34.25
2018-07-25T14:33:22.308Z,33.95
2018-07-25T14:35:53.485Z,33.65
2018-07-25T14:38:30.628Z,33.28
2018-07-25T14:41:09.150Z,33.10
2018-07-25T14:43:46.644Z,32.93
2018-07-25T14:46:24.176Z,32.88
2018-07-25T14:48:59.713Z,33.02
2018-07-25T14:51:38.096Z,33.07
2018-07-25T14:54:15.281Z,32.94
2018-07-25T14:56:54.759Z,32.96
2018-07-25T14:59:37.177Z,32.80
2018-07-25T15:02:16.244Z,32.74
2018-07-25T15:04:55.612Z,32.92
2018-07-25T15:07:29.955Z,33.51
2018-07-25T15:10:04.141Z,34.16
2018-07-25T15:12:43.507Z,34.23
2018-07-25T15:15:15.928Z,34.62
2018-07-25T15:17:46.912Z,35.25
2018-07-25T15:20:17.081Z,35.37
2018-07-25T15:22:49.623Z,35.43
2018-07-25T15:25:20.256Z,35.63
2018-07-25T15:27:54.037Z,35.61
2018-07-25T15:30:25.504Z,35.63
2018-07-25T15:32:54.648Z,35.21
2018-07-25T15:35:25.372Z,34.96
2018-07-25T15:37:54.545Z,34.92
2018-07-25T15:40:23.797Z,34.83
2018-07-25T15:42:53.128Z,34.69
2018-07-25T15:45:22.392Z,34.72
2018-07-25T15:47:58.185Z,34.49
2018-07-25T15:50:28.256Z,34.49
2018-07-25T15:53:02.324Z,34.65
2018-07-25T15:55:36.630Z,34.27
2018-07-25T15:58:10.025Z,34.37
2018-07-25T16:00:39.240Z,34.19
2018-07-25T16:03:10.108Z,34.22
2018-07-25T16:05:39.820Z,33.92
2018-07-25T16:08:09.365Z,33.94
2018-07-25T16:10:39.072Z,33.92
2018-07-25T16:13:09.721Z,34.12
2018-07-25T16:15:39.415Z,34.46
2018-07-25T16:18:08.600Z,34.33
2018-07-25T16:20:38.693Z,34.36
2018-07-25T16:23:08.216Z,34.42
2018-07-25T16:25:40.017Z,34.58
2018-07-25T16:28:11.074Z,34.45
2018-07-25T16:30:40.525Z,34.20
2018-07-25T16:33:10.676Z,34.02
2018-07-25T16:35:40.843Z,33.82
2018-07-25T16:38:12.234Z,33.71
2018-07-25T16:40:43.464Z,33.97
2018-07-25T16:43:14.940Z,33.90
2018-07-25T16:45:45.172Z,33.93
2018-07-25T16:48:17.092Z,33.85
2018-07-25T16:50:47.604Z,33.78
2018-07-25T16:53:18.438Z,33.67
2018-07-25T16:55:51.362Z,33.48
2018-07-25T16:58:23.294Z,33.29
2018-07-25T17:00:54.377Z,33.32
2018-07-25T17:03:29.693Z,33.19
2018-07-25T17:06:02.736Z,33.19
2018-07-25T17:08:32.697Z,33.01
2018-07-25T17:11:04.110Z,33.07
2018-07-25T17:13:36.775Z,33.21
2018-07-25T17:16:10.453Z,32.98
2018-07-25T17:18:41.038Z,32.93
2018-07-25T17:21:12.192Z,32.85
2018-07-25T17:23:47.861Z,33.00
2018-07-25T17:26:21.992Z,33.07
2018-07-25T17:28:52.788Z,32.98
2018-07-25T17:31:28.709Z,33.05
2018-07-25T17:34:02.357Z,32.75
2018-07-25T17:36:34.621Z,32.45
2018-07-25T17:39:11.409Z,32.18
2018-07-25T17:41:44.413Z,32.08
2018-07-25T17:44:16.181Z,31.92
2018-07-25T17:46:46.700Z,31.80
2018-07-25T17:49:16.741Z,31.59
2018-07-25T17:51:48.778Z,31.42
2018-07-25T17:54:19.383Z,31.23
2018-07-25T17:56:50.938Z,31.13
2018-07-25T17:59:22.594Z,30.91
2018-07-25T18:01:55.634Z,30.65
2018-07-25T18:04:27.956Z,30.46
2018-07-25T18:07:02.489Z,30.18
2018-07-25T18:09:33.028Z,30.02
2018-07-25T18:12:04.336Z,29.87
2018-07-25T18:14:43.453Z,29.81
2018-07-25T18:17:16.101Z,29.88
2018-07-25T18:19:47.719Z,29.59
2018-07-25T18:22:17.883Z,29.48
2018-07-25T18:24:49.493Z,29.38
2018-07-25T18:27:23.345Z,29.27
2018-07-25T18:29:55.553Z,29.05
2018-07-25T18:32:25.601Z,28.89
2018-07-25T18:34:57.276Z,28.76
2018-07-25T18:37:26.853Z,28.67
2018-07-25T18:39:56.868Z,28.55
2018-07-25T18:42:31.857Z,28.41
2018-07-25T18:45:01.349Z,28.30
2018-07-25T18:47:31.833Z,28.17
2018-07-25T18:50:03.517Z,28.06
2018-07-25T18:52:38.012Z,27.96
2018-07-25T18:55:14.101Z,27.92
2018-07-25T18:57:45.261Z,27.79
2018-07-25T19:00:17.028Z,27.65
2018-07-25T19:02:48.857Z,27.51
2018-07-25T19:05:24.409Z,27.35
2018-07-25T19:07:56.724Z,27.28
2018-07-25T19:10:27.208Z,27.20
2018-07-25T19:12:58.998Z,27.16
2018-07-25T19:15:34.209Z,27.07
2018-07-25T19:18:04.020Z,26.90
2018-07-25T19:20:35.769Z,26.80
2018-07-25T19:23:06.513Z,26.51
2018-07-25T19:25:37.384Z,26.57
2018-07-25T19:28:10.329Z,26.46
2018-07-25T19:30:40.348Z,26.33
2018-07-25T19:33:12.046Z,25.97
2018-07-25T19:35:45.008Z,25.56
2018-07-25T19:38:16.672Z,25.74
2018-07-25T19:40:47.904Z,25.73
2018-07-25T19:43:23.144Z,25.72
2018-07-25T19:45:55.800Z,25.75
2018-07-25T19:48:28.897Z,25.77
2018-07-25T19:50:59.548Z,25.69
2018-07-25T19:53:31.937Z,25.70
2018-07-25T19:56:02.027Z,25.69
2018-07-25T19:58:41.268Z,25.59
2018-07-25T20:01:14.029Z,24.87
2018-07-25T20:03:46.020Z,24.81
2018-07-25T20:06:16.688Z,24.95
2018-07-25T20:08:54.037Z,24.97
2018-07-25T20:11:23.192Z,24.95
2018-07-25T20:13:59.694Z,24.95
2018-07-25T20:16:29.849Z,24.87
2018-07-25T20:19:00.037Z,24.83
2018-07-25T20:21:29.608Z,24.79
2018-07-25T20:24:00.466Z,24.73
2018-07-25T20:26:34.170Z,24.64
2018-07-25T20:30:33.886Z,24.58
2018-07-25T20:33:07.285Z,24.40
2018-07-25T20:35:40.406Z,24.31
2018-07-25T20:38:12.365Z,24.35
2018-07-25T20:40:42.159Z,24.12
2018-07-25T20:44:41.335Z,24.14
2018-07-25T20:47:11.455Z,24.14
2018-07-25T20:49:41.601Z,24.09
2018-07-25T20:52:12.640Z,24.07
2018-07-25T20:54:44.988Z,24.01
2018-07-25T20:57:15.038Z,23.99
2018-07-25T20:59:45.363Z,23.95
2018-07-25T21:02:17.325Z,23.88
2018-07-25T21:04:48.065Z,23.84
2018-07-25T21:07:19.507Z,23.85
2018-07-25T21:09:51.847Z,23.82
2018-07-25T21:12:24.428Z,23.67
2018-07-25T21:14:54.659Z,23.66
2018-07-25T21:17:25.149Z,23.71
2018-07-25T21:19:57.167Z,23.70
2018-07-25T21:22:35.404Z,23.69
2018-07-25T21:25:05.236Z,23.68
2018-07-25T21:27:35.800Z,23.71
2018-07-25T21:30:07.807Z,23.68
2018-07-25T21:32:41.563Z,23.65
2018-07-25T21:35:11.410Z,23.60
2018-07-25T21:37:53.628Z,23.58
2018-07-25T21:40:24.868Z,23.52
2018-07-25T21:42:56.509Z,23.43
2018-07-25T21:45:26.369Z,23.40
2018-07-25T21:47:58.148Z,23.30
2018-07-25T21:50:28.780Z,23.30
2018-07-25T21:52:58.328Z,23.32
2018-07-25T21:55:38.484Z,23.22
2018-07-25T21:58:09.209Z,23.17
2018-07-25T22:00:43.746Z,23.17
2018-07-25T22:03:18.548Z,23.16
2018-07-25T22:05:48.892Z,23.12
2018-07-25T22:08:19.009Z,23.07
2018-07-25T22:10:49.980Z,22.99
2018-07-25T22:13:20.940Z,22.99
2018-07-25T22:15:52.497Z,22.84
2018-07-25T22:18:26.361Z,22.76
2018-07-25T22:20:58.117Z,22.73
2018-07-25T22:23:27.889Z,22.71
2018-07-25T22:25:59.984Z,22.63
2018-07-25T22:28:29.256Z,22.60
2018-07-25T22:31:00.124Z,22.60
2018-07-25T22:33:35.983Z,22.66
2018-07-25T22:36:05.778Z,22.65
2018-07-25T22:38:40.477Z,22.63
2018-07-25T22:41:12.081Z,22.55
2018-07-25T22:43:45.270Z,22.47
2018-07-25T22:46:15.971Z,22.40
2018-07-25T22:48:47.893Z,22.38
2018-07-25T22:51:18.497Z,22.24
2018-07-25T22:53:51.785Z,22.09
2018-07-25T22:56:21.757Z,22.04
2018-07-25T22:58:54.789Z,22.08
2018-07-25T23:01:28.800Z,22.14
2018-07-25T23:04:01.259Z,22.17
2018-07-25T23:06:44.760Z,22.18
2018-07-25T23:09:16.316Z,22.17
2018-07-25T23:11:46.187Z,22.19
2018-07-25T23:14:16.327Z,21.93
2018-07-25T23:16:47.172Z,21.57
2018-07-25T23:21:56.653Z,21.67
2018-07-25T23:24:27.301Z,21.65
2018-07-25T23:26:58.890Z,21.56
2018-07-25T23:29:29.411Z,21.69
2018-07-25T23:31:59.485Z,21.74
2018-07-25T23:34:35.789Z,21.76
2018-07-25T23:37:07.923Z,21.74
2018-07-25T23:39:38.449Z,21.71
2018-07-25T23:42:10.732Z,21.65
2018-07-25T23:44:50.785Z,21.61
2018-07-25T23:50:25.649Z,21.51
2018-07-25T23:53:02.865Z,21.51
2018-07-25T23:55:47.885Z,21.46
2018-07-25T23:58:34.344Z,21.39
